createdAt,value
2019-02-10T00:01:08.536Z,75.96
2019-02-10T00:03:38.718Z,75.94
2019-02-10T00:06:08.903Z,75.93
2019-02-10T00:08:39.046Z,75.86
2019-02-10T00:11:09.177Z,75.76
2019-02-10T00:13:40.842Z,75.67
2019-02-10T00:16:19.861Z,75.62
2019-02-10T00:18:50.104Z,75.61
2019-02-10T00:21:20.480Z,75.69
2019-02-10T00:23:50.658Z,75.69
2019-02-10T00:26:20.978Z,75.68
2019-02-10T00:28:51.176Z,75.63
2019-02-10T00:31:21.331Z,75.53
2019-02-10T00:33:51.433Z,75.37
2019-02-10T00:36:21.590Z,75.23
2019-02-10T00:38:53.002Z,75.10
2019-02-10T00:41:23.073Z,75.00
2019-02-10T00:43:55.374Z,74.90
2019-02-10T00:46:25.616Z,74.85
2019-02-10T00:48:55.987Z,74.79
2019-02-10T00:51:26.135Z,74.68
2019-02-10T00:53:56.412Z,74.60
2019-02-10T00:56:26.687Z,74.54
2019-02-10T00:58:57.037Z,74.47
2019-02-10T01:01:27.283Z,74.42
2019-02-10T01:03:57.841Z,74.35
2019-02-10T01:06:28.155Z,74.30
2019-02-10T01:08:58.370Z,74.27
2019-02-10T01:11:28.589Z,74.24
2019-02-10T01:13:59.052Z,74.26
2019-02-10T01:16:29.367Z,74.28
2019-02-10T01:19:10.793Z,74.38
2019-02-10T01:21:46.264Z,74.43
2019-02-10T01:24:16.543Z,74.48
2019-02-10T01:26:49.482Z,74.52
2019-02-10T01:29:19.821Z,74.47
2019-02-10T01:31:50.017Z,74.43
2019-02-10T01:34:20.247Z,74.48
2019-02-10T01:36:50.526Z,74.54
2019-02-10T01:39:21.762Z,74.64
2019-02-10T01:41:51.973Z,74.69
2019-02-10T01:44:22.157Z,74.69
2019-02-10T01:46:52.385Z,74.68
2019-02-10T01:49:22.940Z,74.65
2019-02-10T01:51:53.073Z,74.64
2019-02-10T01:54:23.378Z,74.63
2019-02-10T01:56:53.747Z,74.58
2019-02-10T01:59:23.894Z,74.56
2019-02-10T02:01:54.062Z,74.54
2019-02-10T02:04:24.376Z,74.55
2019-02-10T02:06:57.865Z,74.60
2019-02-10T02:09:26.673Z,74.62
2019-02-10T02:11:56.922Z,74.61
2019-02-10T02:14:27.079Z,74.65
2019-02-10T02:16:57.290Z,74.64
2019-02-10T02:19:27.532Z,74.66
2019-02-10T02:21:57.700Z,74.69
2019-02-10T02:24:27.913Z,74.70
2019-02-10T02:26:58.124Z,74.71
2019-02-10T02:29:28.341Z,74.74
2019-02-10T02:31:58.598Z,74.76
2019-02-10T02:34:28.802Z,74.76
2019-02-10T02:37:07.631Z,74.79
2019-02-10T02:39:37.448Z,74.84
2019-02-10T02:42:07.695Z,74.87
2019-02-10T02:44:37.914Z,74.93
2019-02-10T02:47:08.199Z,74.97
2019-02-10T02:49:38.324Z,75.03
2019-02-10T02:52:08.528Z,75.05
2019-02-10T02:54:38.841Z,75.06
2019-02-10T02:57:08.914Z,75.09
2019-02-10T02:59:39.080Z,75.13
2019-02-10T03:02:09.168Z,75.25
2019-02-10T03:04:39.377Z,75.46
2019-02-10T03:07:17.745Z,75.61
2019-02-10T03:09:41.676Z,75.78
2019-02-10T03:12:11.900Z,75.98
2019-02-10T03:14:42.186Z,76.15
2019-02-10T03:17:12.424Z,76.22
2019-02-10T03:19:42.590Z,76.35
2019-02-10T03:22:12.843Z,76.49
2019-02-10T03:24:43.063Z,76.60
2019-02-10T03:27:13.214Z,76.69
2019-02-10T03:29:43.406Z,76.79
2019-02-10T03:32:16.385Z,76.91
2019-02-10T03:34:46.535Z,76.98
2019-02-10T03:37:16.725Z,77.08
2019-02-10T03:39:46.975Z,77.20
2019-02-10T03:42:17.227Z,77.26
2019-02-10T03:44:47.363Z,77.49
2019-02-10T03:47:17.516Z,77.56
2019-02-10T03:49:47.910Z,77.67
2019-02-10T03:52:18.153Z,77.70
2019-02-10T03:54:48.374Z,77.83
2019-02-10T03:57:18.607Z,77.95
2019-02-10T03:59:48.880Z,78.04
2019-02-10T04:02:19.095Z,78.15
2019-02-10T04:04:49.232Z,78.18
2019-02-10T04:07:19.551Z,78.30
2019-02-10T04:09:49.772Z,78.40
2019-02-10T04:12:20.025Z,78.40
2019-02-10T04:14:50.170Z,78.41
2019-02-10T04:17:20.320Z,78.45
2019-02-10T04:19:50.887Z,78.53
2019-02-10T04:22:21.141Z,78.65
2019-02-10T04:24:51.287Z,78.73
2019-02-10T04:27:21.545Z,78.88
2019-02-10T04:29:54.089Z,79.00
2019-02-10T04:32:32.517Z,79.10
2019-02-10T04:35:02.764Z,79.24
2019-02-10T04:37:32.976Z,79.40
2019-02-10T04:40:03.149Z,79.51
2019-02-10T04:42:33.234Z,79.62
2019-02-10T04:45:03.417Z,79.73
2019-02-10T04:47:33.578Z,79.86
2019-02-10T04:50:04.117Z,79.94
2019-02-10T04:52:34.403Z,79.96
2019-02-10T04:55:05.258Z,80.03
2019-02-10T04:57:35.419Z,80.06
2019-02-10T05:00:07.761Z,80.13
2019-02-10T05:02:37.902Z,80.17
2019-02-10T05:05:08.196Z,80.25
2019-02-10T05:07:38.458Z,80.33
2019-02-10T05:10:09.556Z,80.42
2019-02-10T05:12:39.667Z,80.50
2019-02-10T05:15:09.840Z,80.54
2019-02-10T05:17:40.021Z,80.58
2019-02-10T05:20:10.335Z,80.67
2019-02-10T05:22:40.617Z,80.73
2019-02-10T05:25:10.899Z,80.79
2019-02-10T05:27:41.083Z,80.91
2019-02-10T05:30:11.316Z,80.99
2019-02-10T05:32:41.486Z,81.09
2019-02-10T05:35:11.742Z,81.15
2019-02-10T05:37:45.809Z,81.21
2019-02-10T05:40:16.363Z,81.26
2019-02-10T05:42:46.875Z,81.27
2019-02-10T05:45:18.211Z,81.29
2019-02-10T05:47:48.626Z,81.28
2019-02-10T05:50:19.152Z,81.33
2019-02-10T05:52:49.604Z,81.35
2019-02-10T05:55:20.285Z,81.36
2019-02-10T05:57:50.765Z,81.39
2019-02-10T06:00:21.394Z,81.40
2019-02-10T06:02:51.957Z,81.42
2019-02-10T06:05:25.765Z,81.45
2019-02-10T06:07:56.182Z,81.48
2019-02-10T06:10:26.685Z,81.46
2019-02-10T06:12:58.040Z,81.47
2019-02-10T06:15:28.793Z,81.52
2019-02-10T06:17:59.446Z,81.55
2019-02-10T06:20:29.744Z,81.59
2019-02-10T06:23:00.358Z,81.61
2019-02-10T06:25:30.795Z,81.64
2019-02-10T06:28:01.446Z,81.66
2019-02-10T06:30:31.934Z,81.69
2019-02-10T06:33:02.461Z,81.75
2019-02-10T06:35:32.939Z,81.78
2019-02-10T06:38:03.453Z,81.80
2019-02-10T06:40:33.852Z,81.84
2019-02-10T06:43:04.093Z,81.88
2019-02-10T06:45:34.281Z,81.91
2019-02-10T06:48:04.582Z,81.93
2019-02-10T06:50:34.708Z,81.96
2019-02-10T06:53:04.938Z,82.01
2019-02-10T06:55:35.129Z,82.04
2019-02-10T06:58:06.655Z,82.06
2019-02-10T07:00:50.422Z,82.08
2019-02-10T07:03:45.614Z,82.10
2019-02-10T07:06:16.395Z,82.12
2019-02-10T07:08:47.160Z,82.18
2019-02-10T07:11:17.529Z,82.19
2019-02-10T07:13:51.754Z,82.16
2019-02-10T07:17:08.708Z,82.16
2019-02-10T07:20:40.858Z,82.18
2019-02-10T07:23:57.104Z,82.22
2019-02-10T07:27:31.089Z,82.32
2019-02-10T07:30:46.569Z,82.33
2019-02-10T07:34:01.425Z,82.29
2019-02-10T07:37:10.630Z,82.33
2019-02-10T07:40:27.443Z,82.37
2019-02-10T07:43:43.237Z,82.38
2019-02-10T07:47:01.240Z,82.41
2019-02-10T07:50:17.419Z,82.45
2019-02-10T07:53:45.689Z,82.48
2019-02-10T07:57:24.935Z,82.49
2019-02-10T08:00:31.310Z,82.52
2019-02-10T08:03:41.589Z,82.58
2019-02-10T08:07:02.407Z,82.60
2019-02-10T08:10:25.012Z,82.64
2019-02-10T08:13:12.482Z,82.70
2019-02-10T08:16:43.086Z,82.78
2019-02-10T08:20:09.917Z,82.83
2019-02-10T08:23:33.246Z,82.92
2019-02-10T08:32:10.971Z,83.67
2019-02-10T08:35:29.500Z,84.46
2019-02-10T08:39:05.578Z,83.96
2019-02-10T08:42:22.118Z,83.61
2019-02-10T08:45:24.930Z,83.42
2019-02-10T08:49:04.287Z,83.35
2019-02-10T08:52:05.512Z,83.32
2019-02-10T08:54:35.731Z,83.26
2019-02-10T08:57:15.008Z,83.25
2019-02-10T08:59:56.529Z,83.27
2019-02-10T09:02:30.096Z,83.21
2019-02-10T09:05:03.618Z,83.23
2019-02-10T09:07:35.014Z,83.23
2019-02-10T09:10:05.963Z,83.29
2019-02-10T09:12:36.594Z,83.33
2019-02-10T09:15:12.149Z,83.33
2019-02-10T09:17:44.829Z,83.34
2019-02-10T09:20:15.209Z,83.35
2019-02-10T09:22:45.385Z,83.33
2019-02-10T09:25:15.752Z,83.27
2019-02-10T09:27:46.017Z,83.29
2019-02-10T09:30:17.420Z,83.28
2019-02-10T09:32:47.682Z,83.24
2019-02-10T09:35:17.924Z,83.23
2019-02-10T09:37:48.304Z,83.20
2019-02-10T09:40:18.654Z,83.20
2019-02-10T09:42:51.476Z,83.25
2019-02-10T09:45:26.429Z,83.27
2019-02-10T09:47:56.948Z,83.28
2019-02-10T09:50:32.774Z,83.30
2019-02-10T09:53:05.838Z,83.29
2019-02-10T09:55:36.181Z,83.27
2019-02-10T09:58:07.034Z,83.28
2019-02-10T10:00:37.342Z,83.33
2019-02-10T10:03:17.045Z,83.35
2019-02-10T10:05:49.259Z,83.35
2019-02-10T10:08:19.263Z,83.35
2019-02-10T10:10:49.614Z,83.35
2019-02-10T10:13:20.080Z,83.35
2019-02-10T10:15:53.121Z,83.34
2019-02-10T10:18:28.170Z,83.35
2019-02-10T10:20:57.823Z,83.38
2019-02-10T10:23:33.838Z,83.40
2019-02-10T10:26:09.196Z,83.42
2019-02-10T10:28:48.904Z,83.50
2019-02-10T10:31:19.309Z,83.56
2019-02-10T10:33:50.163Z,83.66
2019-02-10T10:36:23.757Z,83.72
2019-02-10T10:38:55.950Z,83.74
2019-02-10T10:41:26.201Z,83.77
2019-02-10T10:43:59.153Z,83.80
2019-02-10T10:46:31.340Z,83.85
2019-02-10T10:49:08.548Z,83.88
2019-02-10T10:51:42.831Z,83.89
2019-02-10T10:54:22.505Z,83.85
2019-02-10T10:56:55.953Z,83.76
2019-02-10T10:59:26.253Z,83.72
2019-02-10T11:01:58.573Z,83.71
2019-02-10T11:04:37.873Z,83.77
2019-02-10T11:07:03.682Z,83.76
2019-02-10T11:09:35.862Z,83.83
2019-02-10T11:12:18.449Z,83.84
2019-02-10T11:14:57.973Z,83.90
2019-02-10T11:17:28.302Z,83.98
2019-02-10T11:20:02.317Z,84.06
2019-02-10T11:22:32.538Z,84.11
2019-02-10T11:25:02.794Z,84.20
2019-02-10T11:27:33.837Z,84.39
2019-02-10T11:30:04.354Z,84.47
2019-02-10T11:32:34.752Z,84.58
2019-02-10T11:35:07.646Z,84.90
2019-02-10T11:37:38.109Z,85.02
2019-02-10T11:40:11.525Z,85.15
2019-02-10T11:42:46.945Z,85.22
2019-02-10T11:45:17.380Z,85.36
2019-02-10T11:47:47.796Z,85.48
2019-02-10T11:50:20.041Z,85.46
2019-02-10T11:52:52.029Z,85.43
2019-02-10T11:55:22.471Z,85.32
2019-02-10T11:57:52.903Z,85.23
2019-02-10T12:00:23.222Z,85.09
2019-02-10T12:02:53.554Z,84.80
2019-02-10T12:05:23.916Z,84.76
2019-02-10T12:07:54.241Z,84.71
2019-02-10T12:10:24.501Z,84.67
2019-02-10T12:12:57.549Z,84.55
2019-02-10T12:15:27.815Z,84.58
2019-02-10T12:17:58.014Z,84.42
2019-02-10T12:20:28.456Z,84.65
2019-02-10T12:22:58.711Z,84.85
2019-02-10T12:25:28.945Z,84.95
2019-02-10T12:27:59.269Z,84.96
2019-02-10T12:30:29.509Z,85.02
2019-02-10T12:32:59.687Z,85.08
2019-02-10T12:35:29.882Z,85.02
2019-02-10T12:38:00.158Z,84.96
2019-02-10T12:40:30.464Z,85.07
2019-02-10T12:43:00.784Z,85.12
2019-02-10T12:45:31.257Z,85.12
2019-02-10T12:48:01.731Z,85.19
2019-02-10T12:50:32.448Z,85.24
2019-02-10T12:53:10.247Z,85.33
2019-02-10T12:56:17.390Z,85.32
2019-02-10T12:58:18.093Z,85.25
2019-02-10T13:00:51.635Z,85.27
2019-02-10T13:03:21.926Z,85.29
2019-02-10T13:05:52.328Z,85.28
2019-02-10T13:08:46.603Z,85.39
2019-02-10T13:11:59.611Z,85.44
2019-02-10T13:14:19.836Z,85.42
2019-02-10T13:16:49.666Z,85.46
2019-02-10T13:19:22.959Z,85.55
2019-02-10T13:22:04.204Z,85.62
2019-02-10T13:24:34.560Z,85.63
2019-02-10T13:27:04.937Z,85.65
2019-02-10T13:29:38.971Z,85.57
2019-02-10T13:32:12.006Z,85.53
2019-02-10T13:34:42.354Z,85.55
2019-02-10T13:37:16.794Z,85.53
2019-02-10T13:39:51.824Z,85.64
2019-02-10T13:42:22.511Z,85.61
2019-02-10T13:44:54.875Z,85.64
2019-02-10T13:47:28.986Z,85.60
2019-02-10T13:50:03.768Z,85.63
2019-02-10T13:52:34.526Z,85.60
2019-02-10T13:55:05.085Z,85.59
2019-02-10T13:57:36.712Z,85.67
2019-02-10T14:00:11.998Z,85.60
2019-02-10T14:02:46.687Z,85.67
2019-02-10T14:05:17.080Z,85.69
2019-02-10T14:07:50.997Z,85.57
2019-02-10T14:10:25.797Z,85.46
2019-02-10T14:12:55.296Z,85.54
2019-02-10T14:15:41.331Z,85.49
2019-02-10T14:18:07.259Z,85.64
2019-02-10T14:20:42.773Z,85.57
2019-02-10T14:23:15.721Z,85.73
2019-02-10T14:25:46.003Z,85.64
2019-02-10T14:28:16.276Z,85.67
2019-02-10T14:30:46.526Z,85.68
2019-02-10T14:33:16.890Z,85.63
2019-02-10T14:35:50.124Z,85.71
2019-02-10T14:38:24.734Z,85.74
2019-02-10T14:40:55.153Z,85.85
2019-02-10T14:43:25.463Z,85.82
2019-02-10T14:45:55.732Z,85.67
2019-02-10T14:48:26.317Z,85.78
2019-02-10T14:50:56.690Z,85.90
2019-02-10T14:53:31.220Z,85.96
2019-02-10T14:56:01.545Z,85.95
2019-02-10T14:58:34.224Z,85.90
2019-02-10T15:01:04.441Z,85.93
2019-02-10T15:03:34.695Z,85.86
2019-02-10T15:06:04.974Z,85.73
2019-02-10T15:08:35.126Z,85.67
2019-02-10T15:11:05.396Z,85.71
2019-02-10T15:13:36.134Z,85.77
2019-02-10T15:16:06.724Z,85.64
2019-02-10T15:18:53.561Z,85.53
2019-02-10T15:21:23.901Z,85.46
2019-02-10T15:23:54.114Z,85.41
2019-02-10T15:26:24.328Z,85.51
2019-02-10T15:28:54.675Z,85.44
2019-02-10T15:31:27.521Z,85.35
2019-02-10T15:33:57.066Z,85.33
2019-02-10T15:36:28.851Z,85.61
2019-02-10T15:39:00.565Z,85.64
2019-02-10T15:41:33.878Z,85.55
2019-02-10T15:44:07.232Z,85.61
2019-02-10T15:46:39.112Z,85.67
2019-02-10T15:49:11.294Z,85.74
2019-02-10T15:51:42.001Z,85.63
2019-02-10T15:54:17.441Z,85.62
2019-02-10T15:56:49.768Z,85.66
2019-02-10T15:59:20.316Z,85.53
2019-02-10T16:01:50.865Z,85.46
2019-02-10T16:04:21.575Z,85.53
2019-02-10T16:06:52.100Z,85.57
2019-02-10T16:09:22.725Z,85.54
2019-02-10T16:11:53.354Z,85.66
2019-02-10T16:14:25.129Z,85.66
2019-02-10T16:16:55.668Z,85.70
2019-02-10T16:19:26.207Z,85.57
2019-02-10T16:21:56.687Z,85.59
2019-02-10T16:24:27.315Z,85.59
2019-02-10T16:26:57.865Z,85.60
2019-02-10T16:29:28.643Z,85.63
2019-02-10T16:31:59.232Z,85.53
2019-02-10T16:34:29.871Z,85.55
2019-02-10T16:37:00.504Z,85.56
2019-02-10T16:39:31.061Z,85.53
2019-02-10T16:42:01.623Z,85.54
2019-02-10T16:44:34.965Z,85.49
2019-02-10T16:47:05.669Z,85.52
2019-02-10T16:49:36.214Z,85.47
2019-02-10T16:52:07.452Z,85.51
2019-02-10T16:54:38.075Z,85.46
2019-02-10T16:57:08.656Z,85.43
2019-02-10T16:59:39.299Z,85.49
2019-02-10T17:02:10.161Z,85.49
2019-02-10T17:04:42.260Z,85.52
2019-02-10T17:07:12.956Z,85.52
2019-02-10T17:09:50.766Z,85.53
2019-02-10T17:12:21.135Z,85.52
2019-02-10T17:14:53.056Z,85.55
2019-02-10T17:17:23.656Z,85.46
2019-02-10T17:19:54.261Z,85.42
2019-02-10T17:22:25.055Z,85.43
2019-02-10T17:24:55.824Z,85.42
2019-02-10T17:27:26.495Z,85.37
2019-02-10T17:29:57.316Z,85.33
2019-02-10T17:32:28.009Z,85.35
2019-02-10T17:34:58.790Z,85.43
2019-02-10T17:37:29.605Z,85.44
2019-02-10T17:40:00.252Z,85.47
2019-02-10T17:42:32.492Z,85.49
2019-02-10T17:45:03.190Z,85.51
2019-02-10T17:47:35.783Z,85.52
2019-02-10T17:50:09.811Z,85.54
2019-02-10T17:52:40.352Z,85.54
2019-02-10T17:55:11.322Z,85.57
2019-02-10T17:57:41.915Z,85.57
2019-02-10T18:00:14.907Z,85.52
2019-02-10T18:02:45.355Z,85.50
2019-02-10T18:05:15.693Z,85.50
2019-02-10T18:07:45.976Z,85.49
2019-02-10T18:10:16.344Z,85.46
2019-02-10T18:12:46.585Z,85.50
2019-02-10T18:15:44.755Z,85.48
2019-02-10T18:18:40.652Z,85.51
2019-02-10T18:21:47.907Z,85.51
2019-02-10T18:24:26.360Z,85.54
2019-02-10T18:27:27.732Z,85.56
2019-02-10T18:30:19.028Z,85.55
2019-02-10T18:33:07.327Z,85.61
2019-02-10T18:35:53.615Z,85.72
2019-02-10T18:38:32.855Z,85.76
2019-02-10T18:41:14.603Z,85.74
2019-02-10T18:44:02.624Z,85.72
2019-02-10T18:46:37.843Z,85.74
2019-02-10T18:49:16.675Z,85.74
2019-02-10T18:51:58.319Z,85.77
2019-02-10T18:54:47.715Z,85.79
2019-02-10T18:57:41.896Z,85.78
2019-02-10T19:00:19.560Z,85.72
2019-02-10T19:03:08.572Z,85.70
2019-02-10T19:05:45.325Z,85.69
2019-02-10T19:08:31.755Z,85.71
2019-02-10T19:11:35.131Z,85.73
2019-02-10T19:14:44.511Z,85.75
2019-02-10T19:17:24.183Z,85.71
2019-02-10T19:20:22.315Z,85.72
2019-02-10T19:23:11.893Z,85.72
2019-02-10T19:26:01.849Z,85.75
2019-02-10T19:28:42.100Z,85.76
2019-02-10T19:31:30.027Z,85.78
2019-02-10T19:34:28.658Z,85.78
2019-02-10T19:37:36.167Z,85.79
2019-02-10T19:40:18.919Z,85.82
2019-02-10T19:43:01.233Z,85.93
2019-02-10T19:45:51.874Z,85.97
2019-02-10T19:48:56.388Z,86.01
2019-02-10T19:51:48.301Z,86.00
2019-02-10T19:54:27.484Z,86.07
2019-02-10T19:57:12.398Z,86.10
2019-02-10T20:00:20.741Z,86.05
2019-02-10T20:03:04.026Z,86.08
2019-02-10T20:05:50.704Z,86.17
2019-02-10T20:08:34.997Z,86.14
2019-02-10T20:11:27.112Z,86.13
2019-02-10T20:14:07.600Z,86.16
2019-02-10T20:16:56.812Z,86.24
2019-02-10T20:19:44.474Z,86.29
2019-02-10T20:22:46.194Z,86.29
2019-02-10T20:25:25.682Z,86.32
2019-02-10T20:28:03.360Z,86.36
2019-02-10T20:31:16.172Z,86.32
2019-02-10T20:34:04.669Z,86.32
2019-02-10T20:36:48.434Z,86.38
2019-02-10T20:39:33.991Z,86.32
2019-02-10T20:42:22.399Z,86.29
2019-02-10T20:45:10.512Z,86.22
2019-02-10T20:47:58.588Z,86.19
2019-02-10T20:50:44.959Z,86.21
2019-02-10T20:53:43.255Z,86.13
2019-02-10T20:56:23.052Z,86.12
2019-02-10T20:59:19.608Z,86.11
2019-02-10T21:02:03.297Z,86.04
2019-02-10T21:04:57.590Z,86.00
2019-02-10T21:07:42.675Z,85.96
2019-02-10T21:10:29.807Z,85.95
2019-02-10T21:13:20.325Z,85.91
2019-02-10T21:16:14.042Z,85.83
2019-02-10T21:18:56.471Z,85.81
2019-02-10T21:21:46.011Z,85.93
2019-02-10T21:24:33.879Z,86.01
2019-02-10T21:27:12.087Z,85.99
2019-02-10T21:30:01.371Z,85.98
2019-02-10T21:32:54.384Z,86.03
2019-02-10T21:35:31.376Z,86.02
2019-02-10T21:38:35.597Z,86.03
2019-02-10T21:41:25.929Z,86.01
2019-02-10T21:44:22.933Z,86.04
2019-02-10T21:47:13.737Z,86.05
2019-02-10T21:49:44.298Z,86.04
2019-02-10T21:52:19.213Z,85.98
2019-02-10T21:57:28.339Z,85.85
2019-02-10T21:59:58.815Z,85.87
2019-02-10T22:02:29.286Z,85.86
2019-02-10T22:05:02.088Z,85.82
2019-02-10T22:07:32.720Z,85.80
2019-02-10T22:10:07.899Z,85.81
2019-02-10T22:12:39.652Z,85.79
2019-02-10T22:15:15.452Z,85.74
2019-02-10T22:17:47.587Z,85.71
2019-02-10T22:20:17.942Z,85.68
2019-02-10T22:22:48.227Z,85.66
2019-02-10T22:25:18.483Z,85.65
2019-02-10T22:27:48.849Z,85.66
2019-02-10T22:30:19.170Z,85.67
2019-02-10T22:32:49.493Z,85.65
2019-02-10T22:35:19.830Z,85.63
2019-02-10T22:37:50.229Z,85.60
2019-02-10T22:40:20.464Z,85.53
2019-02-10T22:42:55.393Z,85.51
2019-02-10T22:45:25.750Z,85.49
2019-02-10T22:47:56.039Z,85.46
2019-02-10T22:50:26.290Z,85.46
2019-02-10T22:52:56.566Z,85.44
2019-02-10T22:55:27.043Z,85.41
2019-02-10T22:57:57.108Z,85.37
2019-02-10T23:00:51.382Z,85.35
2019-02-10T23:03:21.613Z,85.34
2019-02-10T23:05:51.874Z,85.36
2019-02-10T23:08:22.044Z,85.33
2019-02-10T23:10:52.375Z,85.27
2019-02-10T23:13:22.985Z,85.24
2019-02-10T23:15:53.025Z,85.17
2019-02-10T23:18:28.531Z,85.16
2019-02-10T23:20:59.080Z,85.10
2019-02-10T23:23:29.298Z,85.04
2019-02-10T23:25:59.440Z,84.99
2019-02-10T23:28:29.761Z,84.91
2019-02-10T23:31:00.005Z,84.96
2019-02-10T23:33:30.130Z,84.95
2019-02-10T23:36:00.311Z,84.93
2019-02-10T23:38:30.450Z,84.88
2019-02-10T23:41:00.694Z,84.81
2019-02-10T23:43:30.837Z,84.77
2019-02-10T23:46:00.974Z,84.68
2019-02-10T23:48:31.068Z,84.60
2019-02-10T23:51:01.262Z,84.65
2019-02-10T23:53:31.403Z,84.74
2019-02-10T23:56:01.752Z,84.78
2019-02-10T23:58:31.964Z,84.75
